createdAt,value
2019-04-29T00:00:28.000Z,1021.72
2019-04-29T00:01:28.032Z,1021.73
2019-04-29T00:02:28.065Z,1021.70
2019-04-29T00:03:28.092Z,1021.76
2019-04-29T00:04:28.122Z,1021.78
2019-04-29T00:05:28.151Z,1021.77
2019-04-29T00:06:28.183Z,1021.79
2019-04-29T00:07:28.213Z,1021.80
2019-04-29T00:08:28.242Z,1021.73
2019-04-29T00:09:30.832Z,1021.84
2019-04-29T00:10:28.303Z,1021.86
2019-04-29T00:11:28.334Z,1021.88
2019-04-29T00:12:28.363Z,1021.91
2019-04-29T00:13:28.393Z,1021.90
2019-04-29T00:14:28.427Z,1021.84
2019-04-29T00:15:28.456Z,1021.94
2019-04-29T00:16:28.482Z,1021.86
2019-04-29T00:17:28.522Z,1021.94
2019-04-29T00:18:28.544Z,1021.93
2019-04-29T00:19:28.575Z,1021.95
2019-04-29T00:20:28.605Z,1021.95
2019-04-29T00:21:28.634Z,1021.94
2019-04-29T00:22:28.667Z,1021.94
2019-04-29T00:23:28.697Z,1021.89
2019-04-29T00:24:28.729Z,1021.93
2019-04-29T00:25:28.756Z,1021.97
2019-04-29T00:26:28.786Z,1021.94
2019-04-29T00:27:28.815Z,1021.88
2019-04-29T00:28:28.846Z,1021.85
2019-04-29T00:29:28.875Z,1021.96
2019-04-29T00:30:28.905Z,1021.94
2019-04-29T00:31:28.937Z,1021.90
2019-04-29T00:32:28.965Z,1021.95
2019-04-29T00:33:28.995Z,1021.93
2019-04-29T00:34:29.027Z,1021.93
2019-04-29T00:35:29.056Z,1021.88
2019-04-29T00:36:29.088Z,1021.91
2019-04-29T00:37:29.115Z,1021.89
2019-04-29T00:38:29.146Z,1021.94
2019-04-29T00:39:29.179Z,1021.89
2019-04-29T00:40:29.209Z,1021.86
2019-04-29T00:41:29.234Z,1021.91
2019-04-29T00:42:29.265Z,1021.89
2019-04-29T00:43:29.295Z,1021.93
2019-04-29T00:44:29.326Z,1021.91
2019-04-29T00:45:29.355Z,1021.87
2019-04-29T00:46:29.386Z,1021.92
2019-04-29T00:47:29.415Z,1021.79
2019-04-29T00:48:29.445Z,1021.88
2019-04-29T00:49:29.475Z,1021.89
2019-04-29T00:50:29.507Z,1021.96
2019-04-29T00:51:29.537Z,1021.92
2019-04-29T00:52:29.568Z,1021.94
2019-04-29T00:53:29.596Z,1021.91
2019-04-29T00:54:29.625Z,1021.92
2019-04-29T00:55:29.654Z,1021.85
2019-04-29T00:56:29.685Z,1021.92
2019-04-29T00:57:29.717Z,1021.93
2019-04-29T00:58:29.746Z,1021.94
2019-04-29T00:59:29.775Z,1021.94
2019-04-29T01:00:29.805Z,1021.90
2019-04-29T01:01:29.835Z,1021.93
2019-04-29T01:02:29.869Z,1021.99
2019-04-29T01:03:29.901Z,1021.95
2019-04-29T01:04:29.929Z,1021.95
2019-04-29T01:05:29.958Z,1021.99
2019-04-29T01:06:29.985Z,1021.97
2019-04-29T01:07:30.015Z,1021.95
2019-04-29T01:08:30.046Z,1021.96
2019-04-29T01:09:30.075Z,1021.95
2019-04-29T01:10:30.110Z,1021.90
2019-04-29T01:11:30.133Z,1021.90
2019-04-29T01:12:30.165Z,1021.94
2019-04-29T01:13:30.194Z,1021.92
2019-04-29T01:14:30.224Z,1021.92
2019-04-29T01:15:30.260Z,1021.93
2019-04-29T01:16:30.286Z,1021.78
2019-04-29T01:17:30.314Z,1021.95
2019-04-29T01:18:30.347Z,1021.93
2019-04-29T01:19:30.376Z,1021.97
2019-04-29T01:20:30.404Z,1021.98
2019-04-29T01:21:30.435Z,1021.92
2019-04-29T01:22:30.464Z,1021.92
2019-04-29T01:23:30.493Z,1021.91
2019-04-29T01:24:30.530Z,1021.92
2019-04-29T01:25:30.554Z,1021.95
2019-04-29T01:26:30.588Z,1021.92
2019-04-29T01:27:30.612Z,1021.91
2019-04-29T01:28:30.642Z,1021.90
2019-04-29T01:29:30.676Z,1021.91
2019-04-29T01:30:30.702Z,1021.87
2019-04-29T01:31:30.731Z,1021.86
2019-04-29T01:32:30.761Z,1021.87
2019-04-29T01:33:30.790Z,1021.88
2019-04-29T01:34:30.821Z,1021.88
2019-04-29T01:35:30.851Z,1021.87
2019-04-29T01:36:30.883Z,1021.89
2019-04-29T01:37:30.910Z,1021.83
2019-04-29T01:38:30.940Z,1021.85
2019-04-29T01:39:30.971Z,1021.74
2019-04-29T01:40:31.001Z,1021.85
2019-04-29T01:41:31.028Z,1021.88
2019-04-29T01:42:31.063Z,1021.83
2019-04-29T01:43:31.089Z,1021.89
2019-04-29T01:44:31.117Z,1021.91
2019-04-29T01:45:31.170Z,1021.91
2019-04-29T01:46:31.180Z,1021.84
2019-04-29T01:47:31.207Z,1021.89
2019-04-29T01:48:31.239Z,1021.84
2019-04-29T01:49:31.267Z,1021.85
2019-04-29T01:50:31.298Z,1021.88
2019-04-29T01:51:31.325Z,1021.93
2019-04-29T01:52:31.364Z,1021.91
2019-04-29T01:53:31.389Z,1021.85
2019-04-29T01:54:31.416Z,1021.88
2019-04-29T01:55:31.444Z,1021.85
2019-04-29T01:56:31.476Z,1021.84
2019-04-29T01:57:31.502Z,1021.86
2019-04-29T01:58:31.534Z,1021.83
2019-04-29T01:59:31.562Z,1021.89
2019-04-29T02:00:31.595Z,1021.87
2019-04-29T02:01:31.624Z,1021.89
2019-04-29T02:02:31.652Z,1021.83
2019-04-29T02:03:31.682Z,1021.82
2019-04-29T02:04:31.714Z,1021.85
2019-04-29T02:05:31.747Z,1021.88
2019-04-29T02:06:31.774Z,1021.86
2019-04-29T02:07:31.801Z,1021.79
2019-04-29T02:08:31.837Z,1021.87
2019-04-29T02:09:31.860Z,1021.86
2019-04-29T02:10:31.891Z,1021.89
2019-04-29T02:11:31.918Z,1021.90
2019-04-29T02:12:31.948Z,1021.90
2019-04-29T02:13:31.981Z,1021.87
2019-04-29T02:14:32.008Z,1021.88
2019-04-29T02:15:32.040Z,1021.86
2019-04-29T02:16:32.066Z,1021.89
2019-04-29T02:17:32.101Z,1021.89
2019-04-29T02:18:32.129Z,1021.89
2019-04-29T02:19:32.156Z,1021.89
2019-04-29T02:20:32.185Z,1021.84
2019-04-29T02:21:32.215Z,1021.89
2019-04-29T02:22:32.244Z,1021.90
2019-04-29T02:23:32.275Z,1021.88
2019-04-29T02:24:32.310Z,1021.87
2019-04-29T02:25:32.340Z,1021.90
2019-04-29T02:26:32.368Z,1021.88
2019-04-29T02:27:32.392Z,1021.84
2019-04-29T02:28:32.421Z,1021.86
2019-04-29T02:29:32.452Z,1021.81
2019-04-29T02:30:32.484Z,1021.79
2019-04-29T02:31:32.514Z,1021.82
2019-04-29T02:32:32.542Z,1021.84
2019-04-29T02:33:32.572Z,1021.76
2019-04-29T02:34:32.602Z,1021.84
2019-04-29T02:35:32.634Z,1021.84
2019-04-29T02:36:32.664Z,1021.85
2019-04-29T02:37:32.690Z,1021.86
2019-04-29T02:38:32.721Z,1021.91
2019-04-29T02:39:32.747Z,1021.87
2019-04-29T02:40:32.778Z,1021.83
2019-04-29T02:41:32.807Z,1021.86
2019-04-29T02:42:32.839Z,1021.85
2019-04-29T02:43:32.874Z,1021.95
2019-04-29T02:44:32.898Z,1021.86
2019-04-29T02:45:32.928Z,1021.91
2019-04-29T02:46:32.957Z,1021.87
2019-04-29T02:47:32.991Z,1021.90
2019-04-29T02:48:34.690Z,1021.92
2019-04-29T02:49:33.043Z,1021.94
2019-04-29T02:50:33.073Z,1021.85
2019-04-29T02:51:33.101Z,1021.97
2019-04-29T02:52:33.140Z,1021.88
2019-04-29T02:53:33.163Z,1021.93
2019-04-29T02:54:33.194Z,1021.92
2019-04-29T02:55:33.239Z,1021.89
2019-04-29T02:56:33.248Z,1021.87
2019-04-29T02:57:33.278Z,1021.86
2019-04-29T02:58:33.317Z,1021.94
2019-04-29T02:59:33.338Z,1021.87
2019-04-29T03:00:33.378Z,1021.90
2019-04-29T03:01:33.404Z,1021.89
2019-04-29T03:02:33.428Z,1021.94
2019-04-29T03:03:33.456Z,1021.75
2019-04-29T03:04:33.486Z,1021.94
2019-04-29T03:05:33.518Z,1021.96
2019-04-29T03:06:33.549Z,1021.94
2019-04-29T03:07:33.577Z,1021.95
2019-04-29T03:08:33.602Z,1021.88
2019-04-29T03:09:33.632Z,1021.98
2019-04-29T03:10:33.667Z,1021.99
2019-04-29T03:11:33.692Z,1022.02
2019-04-29T03:12:33.721Z,1022.02
2019-04-29T03:13:33.831Z,1021.97
2019-04-29T03:14:33.781Z,1021.97
2019-04-29T03:15:33.812Z,1021.98
2019-04-29T03:16:33.865Z,1021.98
2019-04-29T03:17:33.871Z,1022.01
2019-04-29T03:18:33.899Z,1021.99
2019-04-29T03:19:33.928Z,1022.00
2019-04-29T03:20:33.961Z,1022.00
2019-04-29T03:21:33.988Z,1022.10
2019-04-29T03:22:34.020Z,1022.04
2019-04-29T03:23:34.049Z,1022.04
2019-04-29T03:24:34.076Z,1022.05
2019-04-29T03:25:34.117Z,1022.05
2019-04-29T03:26:34.140Z,1022.04
2019-04-29T03:27:34.168Z,1022.02
2019-04-29T03:28:34.197Z,1022.05
2019-04-29T03:29:34.232Z,1022.07
2019-04-29T03:30:34.256Z,1021.92
2019-04-29T03:31:39.189Z,1022.03
2019-04-29T03:32:34.315Z,1022.02
2019-04-29T03:33:34.346Z,1022.14
2019-04-29T03:34:34.382Z,1021.91
2019-04-29T03:35:34.406Z,1022.06
2019-04-29T03:36:34.435Z,1022.04
2019-04-29T03:37:34.468Z,1022.08
2019-04-29T03:38:34.496Z,1022.08
2019-04-29T03:39:34.523Z,1022.11
2019-04-29T03:40:34.553Z,1022.10
2019-04-29T03:41:34.585Z,1022.12
2019-04-29T03:42:34.614Z,1022.08
2019-04-29T03:43:34.651Z,1022.12
2019-04-29T03:44:34.676Z,1022.12
2019-04-29T03:45:34.706Z,1022.13
2019-04-29T03:46:34.735Z,1022.10
2019-04-29T03:47:34.808Z,1022.11
2019-04-29T03:48:34.795Z,1022.11
2019-04-29T03:49:34.828Z,1022.13
2019-04-29T03:50:34.860Z,1022.16
2019-04-29T03:51:34.889Z,1022.21
2019-04-29T03:52:34.918Z,1022.17
2019-04-29T03:53:34.947Z,1022.24
2019-04-29T03:54:34.977Z,1022.18
2019-04-29T03:55:40.093Z,1022.23
2019-04-29T03:56:35.036Z,1022.22
2019-04-29T03:57:35.066Z,1022.22
2019-04-29T03:58:35.098Z,1022.19
2019-04-29T03:59:35.126Z,1022.27
2019-04-29T04:00:35.156Z,1022.25
2019-04-29T04:01:35.189Z,1022.26
2019-04-29T04:02:35.297Z,1022.22
2019-04-29T04:03:35.252Z,1022.25
2019-04-29T04:04:35.289Z,1022.26
2019-04-29T04:05:35.309Z,1022.29
2019-04-29T04:06:35.340Z,1022.23
2019-04-29T04:07:35.373Z,1022.32
2019-04-29T04:08:35.401Z,1022.30
2019-04-29T04:09:35.441Z,1022.31
2019-04-29T04:10:35.465Z,1022.32
2019-04-29T04:11:35.493Z,1022.39
2019-04-29T04:12:35.523Z,1022.42
2019-04-29T04:13:35.555Z,1022.42
2019-04-29T04:14:35.585Z,1022.33
2019-04-29T04:15:35.617Z,1022.35
2019-04-29T04:16:35.656Z,1022.34
2019-04-29T04:17:35.676Z,1022.39
2019-04-29T04:18:35.713Z,1022.35
2019-04-29T04:19:35.744Z,1022.38
2019-04-29T04:20:35.775Z,1022.38
2019-04-29T04:21:35.804Z,1022.31
2019-04-29T04:22:35.834Z,1022.31
2019-04-29T04:23:35.877Z,1022.38
2019-04-29T04:24:35.893Z,1022.38
2019-04-29T04:25:35.928Z,1022.36
2019-04-29T04:26:35.957Z,1022.36
2019-04-29T04:27:35.988Z,1022.35
2019-04-29T04:28:36.017Z,1022.35
2019-04-29T04:29:36.054Z,1022.38
2019-04-29T04:30:36.093Z,1022.34
2019-04-29T04:31:36.117Z,1022.32
2019-04-29T04:32:36.142Z,1022.37
2019-04-29T04:33:36.218Z,1022.41
2019-04-29T04:34:36.208Z,1022.39
2019-04-29T04:35:36.238Z,1022.42
2019-04-29T04:36:36.349Z,1022.47
2019-04-29T04:37:36.299Z,1022.43
2019-04-29T04:38:36.335Z,1022.46
2019-04-29T04:39:36.389Z,1022.49
2019-04-29T04:40:36.396Z,1022.49
2019-04-29T04:41:36.427Z,1022.52
2019-04-29T04:42:36.466Z,1022.48
2019-04-29T04:43:36.493Z,1022.51
2019-04-29T04:44:36.531Z,1022.53
2019-04-29T04:45:36.564Z,1022.51
2019-04-29T04:46:36.587Z,1022.50
2019-04-29T04:47:36.618Z,1022.54
2019-04-29T04:48:36.651Z,1022.50
2019-04-29T04:49:36.686Z,1022.54
2019-04-29T04:50:36.773Z,1022.53
2019-04-29T04:51:36.753Z,1022.55
2019-04-29T04:52:36.782Z,1022.51
2019-04-29T04:53:36.816Z,1022.57
2019-04-29T04:54:36.849Z,1022.61
2019-04-29T04:55:36.880Z,1022.58
2019-04-29T04:56:36.917Z,1022.58
2019-04-29T04:57:36.951Z,1022.57
2019-04-29T04:58:36.983Z,1022.57
2019-04-29T04:59:37.015Z,1022.55
2019-04-29T05:00:37.050Z,1022.57
2019-04-29T05:01:37.088Z,1022.55
2019-04-29T05:02:37.117Z,1022.58
2019-04-29T05:03:37.157Z,1022.56
2019-04-29T05:04:37.205Z,1022.59
2019-04-29T05:05:37.227Z,1022.54
2019-04-29T05:06:37.258Z,1022.55
2019-04-29T05:07:37.297Z,1022.54
2019-04-29T05:08:37.329Z,1022.57
2019-04-29T05:09:37.363Z,1022.59
2019-04-29T05:10:37.401Z,1022.56
2019-04-29T05:11:37.438Z,1022.57
2019-04-29T05:12:37.475Z,1022.62
2019-04-29T05:13:37.512Z,1022.63
2019-04-29T05:14:37.547Z,1022.57
2019-04-29T05:15:37.582Z,1022.59
2019-04-29T05:16:37.621Z,1022.57
2019-04-29T05:17:37.655Z,1022.55
2019-04-29T05:18:37.695Z,1022.60
2019-04-29T05:19:37.729Z,1022.67
2019-04-29T05:20:37.767Z,1022.65
2019-04-29T05:21:37.804Z,1022.66
2019-04-29T05:22:37.839Z,1022.60
2019-04-29T05:23:37.877Z,1022.59
2019-04-29T05:24:37.919Z,1022.66
2019-04-29T05:25:37.959Z,1022.69
2019-04-29T05:26:37.990Z,1022.72
2019-04-29T05:27:38.030Z,1022.72
2019-04-29T05:28:38.064Z,1022.74
2019-04-29T05:29:38.104Z,1022.70
2019-04-29T05:30:38.141Z,1022.74
2019-04-29T05:31:38.180Z,1022.77
2019-04-29T05:32:38.215Z,1022.73
2019-04-29T05:33:38.253Z,1022.76
2019-04-29T05:34:41.720Z,1022.80
2019-04-29T05:35:40.224Z,1022.79
2019-04-29T05:36:39.309Z,1022.83
2019-04-29T05:37:38.406Z,1022.81
2019-04-29T05:38:38.446Z,1022.86
2019-04-29T05:39:38.483Z,1022.82
2019-04-29T05:40:38.526Z,1022.88
2019-04-29T05:41:38.559Z,1022.88
2019-04-29T05:42:38.601Z,1022.90
2019-04-29T05:43:38.637Z,1022.93
2019-04-29T05:44:38.674Z,1023.03
2019-04-29T05:45:41.487Z,1023.02
2019-04-29T05:46:38.753Z,1023.09
2019-04-29T05:47:38.796Z,1023.15
2019-04-29T05:48:38.829Z,1023.14
2019-04-29T05:49:41.634Z,1023.15
2019-04-29T05:50:38.910Z,1023.19
2019-04-29T05:51:38.947Z,1023.19
2019-04-29T05:52:39.807Z,1023.30
2019-04-29T05:53:39.025Z,1023.18
2019-04-29T05:54:39.062Z,1023.30
2019-04-29T05:55:39.101Z,1023.26
2019-04-29T05:56:39.139Z,1023.27
2019-04-29T05:57:39.180Z,1023.14
2019-04-29T05:58:39.586Z,1023.22
2019-04-29T05:59:39.260Z,1023.21
2019-04-29T06:00:39.297Z,1023.26
2019-04-29T06:01:42.715Z,1023.25
2019-04-29T06:02:39.377Z,1023.26
2019-04-29T06:03:39.812Z,1023.25
2019-04-29T06:04:39.454Z,1023.27
2019-04-29T06:05:39.494Z,1023.23
2019-04-29T06:06:39.535Z,1023.15
2019-04-29T06:07:39.573Z,1023.18
2019-04-29T06:08:40.564Z,1023.19
2019-04-29T06:09:39.690Z,1023.11
2019-04-29T06:10:42.017Z,1023.10
2019-04-29T06:11:39.732Z,1023.03
2019-04-29T06:12:39.772Z,1023.08
2019-04-29T06:13:39.811Z,1023.08
2019-04-29T06:14:39.852Z,1023.08
2019-04-29T06:15:39.891Z,1023.07
2019-04-29T06:16:39.931Z,1023.04
2019-04-29T06:17:44.280Z,1023.02
2019-04-29T06:18:40.972Z,1023.04
2019-04-29T06:19:41.116Z,1023.03
2019-04-29T06:20:40.090Z,1023.05
2019-04-29T06:21:40.134Z,1023.03
2019-04-29T06:22:41.871Z,1023.06
2019-04-29T06:23:40.208Z,1023.05
2019-04-29T06:24:41.075Z,1023.05
2019-04-29T06:25:40.288Z,1023.03
2019-04-29T06:26:43.421Z,1023.04
2019-04-29T06:27:40.370Z,1023.09
2019-04-29T06:28:40.407Z,1023.01
2019-04-29T06:29:40.452Z,1023.01
2019-04-29T06:30:40.847Z,1023.06
2019-04-29T06:31:40.529Z,1023.05
2019-04-29T06:32:40.570Z,1023.11
2019-04-29T06:33:40.618Z,1023.07
2019-04-29T06:34:41.760Z,1023.12
2019-04-29T06:35:43.355Z,1023.10
2019-04-29T06:36:40.736Z,1023.07
2019-04-29T06:37:40.782Z,1023.05
2019-04-29T06:38:40.820Z,1023.09
2019-04-29T06:39:40.857Z,1023.06
2019-04-29T06:40:40.898Z,1023.02
2019-04-29T06:41:45.399Z,1023.02
2019-04-29T06:42:40.981Z,1023.02
2019-04-29T06:43:41.024Z,1023.05
2019-04-29T06:44:44.434Z,1022.98
2019-04-29T06:45:41.104Z,1022.99
2019-04-29T06:46:41.146Z,1022.99
2019-04-29T06:47:41.192Z,1023.06
2019-04-29T06:48:41.231Z,1023.07
2019-04-29T06:49:41.270Z,1023.05
2019-04-29T06:50:41.313Z,1023.00
2019-04-29T06:51:41.352Z,1023.00
2019-04-29T06:52:41.398Z,1023.07
2019-04-29T06:53:41.435Z,1023.04
2019-04-29T06:54:41.476Z,1023.02
2019-04-29T06:55:41.517Z,1023.03
2019-04-29T06:56:41.561Z,1023.03
2019-04-29T06:57:41.603Z,1023.03
2019-04-29T06:58:41.648Z,1023.02
2019-04-29T06:59:42.960Z,1023.04
2019-04-29T07:00:41.731Z,1023.03
2019-04-29T07:01:41.775Z,1023.04
2019-04-29T07:02:45.574Z,1023.05
2019-04-29T07:03:41.858Z,1023.02
2019-04-29T07:04:41.899Z,1023.01
2019-04-29T07:05:41.940Z,1023.01
2019-04-29T07:06:41.983Z,1023.01
2019-04-29T07:07:42.024Z,1022.99
2019-04-29T07:08:42.067Z,1022.97
2019-04-29T07:09:42.115Z,1023.06
2019-04-29T07:10:42.154Z,1023.05
2019-04-29T07:11:42.198Z,1023.05
2019-04-29T07:12:42.816Z,1023.06
2019-04-29T07:13:42.283Z,1023.04
2019-04-29T07:14:42.325Z,1023.09
2019-04-29T07:15:43.525Z,1023.04
2019-04-29T07:16:42.408Z,1023.10
2019-04-29T07:17:43.022Z,1023.06
2019-04-29T07:18:48.363Z,1023.08
2019-04-29T07:19:42.538Z,1023.07
2019-04-29T07:20:42.581Z,1023.13
2019-04-29T07:21:47.107Z,1023.12
2019-04-29T07:22:42.671Z,1023.07
2019-04-29T07:23:42.710Z,1023.13
2019-04-29T07:24:42.759Z,1023.11
2019-04-29T07:25:42.809Z,1023.16
2019-04-29T07:26:42.843Z,1023.11
2019-04-29T07:27:44.474Z,1023.10
2019-04-29T07:28:42.927Z,1023.07
2019-04-29T07:29:42.975Z,1023.07
2019-04-29T07:31:00.743Z,1023.08
2019-04-29T07:31:43.061Z,1023.07
2019-04-29T07:32:47.131Z,1023.08
2019-04-29T07:33:43.146Z,1023.01
2019-04-29T07:34:43.191Z,1023.05
2019-04-29T07:35:47.875Z,1023.01
2019-04-29T07:36:43.279Z,1023.03
2019-04-29T07:37:43.323Z,1023.08
2019-04-29T07:38:46.459Z,1023.03
2019-04-29T07:39:43.410Z,1023.05
2019-04-29T07:40:44.528Z,1023.09
2019-04-29T07:41:43.499Z,1023.05
2019-04-29T07:42:43.546Z,1023.11
2019-04-29T07:43:44.258Z,1023.08
2019-04-29T07:44:44.493Z,1023.07
2019-04-29T07:45:44.676Z,1023.09
2019-04-29T07:46:56.291Z,1023.07
2019-04-29T07:47:55.802Z,1023.09
2019-04-29T07:48:43.897Z,1023.10
2019-04-29T07:49:47.382Z,1023.13
2019-04-29T07:50:43.900Z,1023.09
2019-04-29T07:51:43.946Z,1023.14
2019-04-29T07:52:45.680Z,1023.12
2019-04-29T07:53:45.485Z,1023.14
2019-04-29T07:54:48.255Z,1023.12
2019-04-29T07:55:44.124Z,1023.12
2019-04-29T07:56:44.171Z,1023.15
2019-04-29T07:57:47.720Z,1023.13
2019-04-29T07:58:44.259Z,1023.09
2019-04-29T07:59:44.310Z,1023.10
2019-04-29T08:00:44.595Z,1023.06
2019-04-29T08:01:44.399Z,1022.99
2019-04-29T08:02:44.444Z,1022.98
2019-04-29T08:03:44.486Z,1022.99
2019-04-29T08:04:44.533Z,1023.01
2019-04-29T08:05:44.578Z,1022.99
2019-04-29T08:06:44.936Z,1023.05
2019-04-29T08:07:44.670Z,1023.04
2019-04-29T08:08:54.730Z,1023.01
2019-04-29T08:09:45.374Z,1023.05
2019-04-29T08:10:55.750Z,1023.08
2019-04-29T08:11:44.855Z,1023.09
2019-04-29T08:12:44.912Z,1023.12
2019-04-29T08:13:44.944Z,1023.06
2019-04-29T08:14:44.998Z,1023.10
2019-04-29T08:15:45.037Z,1023.05
2019-04-29T08:16:45.083Z,1023.10
2019-04-29T08:17:45.132Z,1023.12
2019-04-29T08:18:45.178Z,1023.17
2019-04-29T08:19:45.220Z,1023.10
2019-04-29T08:20:45.269Z,1023.14
2019-04-29T08:21:49.458Z,1023.08
2019-04-29T08:22:45.361Z,1023.11
2019-04-29T08:23:45.406Z,1023.07
2019-04-29T08:24:46.017Z,1023.09
2019-04-29T08:25:45.494Z,1023.09
2019-04-29T08:26:47.565Z,1023.09
2019-04-29T08:27:45.589Z,1023.12
2019-04-29T08:28:45.633Z,1023.02
2019-04-29T08:29:45.679Z,1023.06
2019-04-29T08:30:46.093Z,1023.08
2019-04-29T08:31:45.776Z,1023.07
2019-04-29T08:32:45.822Z,1023.10
2019-04-29T08:33:46.679Z,1023.10
2019-04-29T08:34:45.909Z,1023.08
2019-04-29T08:35:46.896Z,1023.12
2019-04-29T08:36:46.001Z,1023.13
2019-04-29T08:37:46.054Z,1023.07
2019-04-29T08:38:46.096Z,1023.08
2019-04-29T08:39:59.180Z,1023.10
2019-04-29T08:40:50.234Z,1023.14
2019-04-29T08:41:46.234Z,1023.11
2019-04-29T08:42:46.933Z,1023.11
2019-04-29T08:43:46.326Z,1023.09
2019-04-29T08:44:46.372Z,1023.08
2019-04-29T08:45:46.421Z,1023.11
2019-04-29T08:46:51.651Z,1023.08
2019-04-29T08:47:46.513Z,1023.14
2019-04-29T08:48:46.564Z,1023.08
2019-04-29T08:49:46.608Z,1023.06
2019-04-29T08:50:46.655Z,1023.06
2019-04-29T08:51:46.702Z,1023.07
2019-04-29T08:52:46.751Z,1023.08
2019-04-29T08:53:46.795Z,1023.06
2019-04-29T08:54:50.711Z,1023.07
2019-04-29T08:55:46.888Z,1023.05
2019-04-29T08:57:02.237Z,1023.06
2019-04-29T08:57:46.986Z,1023.02
2019-04-29T08:58:49.221Z,1022.99
2019-04-29T08:59:47.078Z,1023.01
2019-04-29T09:00:47.128Z,1023.00
2019-04-29T09:01:47.175Z,1022.96
2019-04-29T09:02:49.237Z,1022.96
2019-04-29T09:03:47.270Z,1022.93
2019-04-29T09:04:53.688Z,1022.96
2019-04-29T09:06:04.309Z,1023.02
2019-04-29T09:06:47.408Z,1023.03
2019-04-29T09:07:47.458Z,1023.03
2019-04-29T09:08:55.303Z,1023.05
2019-04-29T09:09:48.499Z,1022.99
2019-04-29T09:10:47.598Z,1023.09
2019-04-29T09:11:48.326Z,1023.00
2019-04-29T09:12:47.692Z,1022.99
2019-04-29T09:13:47.739Z,1023.00
2019-04-29T09:14:47.791Z,1023.04
2019-04-29T09:15:47.834Z,1023.05
2019-04-29T09:16:47.905Z,1023.01
2019-04-29T09:17:47.927Z,1023.00
2019-04-29T09:18:47.978Z,1023.03
2019-04-29T09:19:48.025Z,1023.00
2019-04-29T09:20:48.069Z,1022.99
2019-04-29T09:21:48.114Z,1022.98
2019-04-29T09:22:48.167Z,1023.03
2019-04-29T09:23:48.215Z,1023.00
2019-04-29T09:24:49.613Z,1022.98
2019-04-29T09:26:01.568Z,1022.99
2019-04-29T09:26:48.354Z,1023.00
2019-04-29T09:27:48.398Z,1023.02
2019-04-29T09:28:49.962Z,1022.98
2019-04-29T09:29:48.493Z,1022.95
2019-04-29T09:30:48.543Z,1022.95
2019-04-29T09:31:48.589Z,1022.92
2019-04-29T09:32:48.634Z,1022.91
2019-04-29T09:33:50.828Z,1022.88
2019-04-29T09:34:48.728Z,1022.86
2019-04-29T09:35:48.777Z,1022.89
2019-04-29T09:36:49.847Z,1022.87
2019-04-29T09:37:48.872Z,1022.86
2019-04-29T09:38:48.922Z,1022.89
2019-04-29T09:39:48.967Z,1022.90
2019-04-29T09:40:49.015Z,1022.88
2019-04-29T09:41:49.062Z,1022.85
2019-04-29T09:42:50.169Z,1022.83
2019-04-29T09:43:49.170Z,1022.82
2019-04-29T09:44:49.202Z,1022.84
2019-04-29T09:45:49.252Z,1022.83
2019-04-29T09:46:49.305Z,1022.80
2019-04-29T09:47:49.348Z,1022.84
2019-04-29T09:48:49.395Z,1022.85
2019-04-29T09:49:49.445Z,1022.84
2019-04-29T09:50:49.493Z,1022.84
2019-04-29T09:51:49.546Z,1022.79
2019-04-29T09:52:49.591Z,1022.79
2019-04-29T09:53:49.637Z,1022.79
2019-04-29T09:54:49.682Z,1022.73
2019-04-29T09:55:49.733Z,1022.75
2019-04-29T09:56:49.781Z,1022.74
2019-04-29T09:57:49.833Z,1022.76
2019-04-29T09:58:49.875Z,1022.73
2019-04-29T09:59:49.920Z,1022.76
2019-04-29T10:00:49.981Z,1022.70
2019-04-29T10:01:50.495Z,1022.68
2019-04-29T10:02:50.069Z,1022.68
2019-04-29T10:03:50.110Z,1022.65
2019-04-29T10:04:56.623Z,1022.69
2019-04-29T10:05:50.211Z,1022.60
2019-04-29T10:06:50.258Z,1022.62
2019-04-29T10:07:50.302Z,1022.65
2019-04-29T10:08:50.351Z,1022.64
2019-04-29T10:09:57.566Z,1022.63
2019-04-29T10:10:50.444Z,1022.62
2019-04-29T10:11:50.492Z,1022.62
2019-04-29T10:12:53.632Z,1022.57
2019-04-29T10:13:50.591Z,1022.56
2019-04-29T10:14:50.633Z,1022.62
2019-04-29T10:15:50.681Z,1022.57
2019-04-29T10:16:51.596Z,1022.58
2019-04-29T10:17:55.477Z,1022.50
2019-04-29T10:18:50.820Z,1022.55
2019-04-29T10:19:50.867Z,1022.46
2019-04-29T10:20:50.914Z,1022.53
2019-04-29T10:21:50.961Z,1022.48
2019-04-29T10:22:53.754Z,1022.50
2019-04-29T10:23:51.059Z,1022.50
2019-04-29T10:24:51.100Z,1022.51
2019-04-29T10:25:51.148Z,1022.53
2019-04-29T10:26:51.194Z,1022.49
2019-04-29T10:27:51.241Z,1022.54
2019-04-29T10:28:51.284Z,1022.49
2019-04-29T10:29:55.232Z,1022.49
2019-04-29T10:30:51.379Z,1022.46
2019-04-29T10:31:51.471Z,1022.50
2019-04-29T10:32:51.473Z,1022.56
2019-04-29T10:33:54.875Z,1022.53
2019-04-29T10:34:51.562Z,1022.49
2019-04-29T10:35:51.609Z,1022.47
2019-04-29T10:36:52.549Z,1022.50
2019-04-29T10:37:51.700Z,1022.51
2019-04-29T10:38:51.746Z,1022.49
2019-04-29T10:39:51.793Z,1022.54
2019-04-29T10:40:51.838Z,1022.54
2019-04-29T10:41:51.886Z,1022.51
2019-04-29T10:42:51.931Z,1022.51
2019-04-29T10:43:53.760Z,1022.48
2019-04-29T10:44:52.024Z,1022.50
2019-04-29T10:45:52.073Z,1022.45
2019-04-29T10:46:52.117Z,1022.52
2019-04-29T10:47:52.168Z,1022.48
2019-04-29T10:48:52.207Z,1022.49
2019-04-29T10:49:52.259Z,1022.46
2019-04-29T10:50:53.754Z,1022.44
2019-04-29T10:51:52.351Z,1022.46
2019-04-29T10:52:52.394Z,1022.47
2019-04-29T10:53:52.715Z,1022.41
2019-04-29T10:54:55.224Z,1022.47
2019-04-29T10:55:52.535Z,1022.43
2019-04-29T10:56:52.583Z,1022.41
2019-04-29T10:57:52.628Z,1022.44
2019-04-29T10:58:52.677Z,1022.51
2019-04-29T10:59:52.719Z,1022.43
2019-04-29T11:00:57.089Z,1022.49
2019-04-29T11:02:01.152Z,1022.48
2019-04-29T11:02:52.860Z,1022.47
2019-04-29T11:03:55.827Z,1022.45
2019-04-29T11:04:52.950Z,1022.43
2019-04-29T11:06:00.253Z,1022.49
2019-04-29T11:06:53.043Z,1022.52
2019-04-29T11:07:53.089Z,1022.41
2019-04-29T11:08:53.138Z,1022.44
2019-04-29T11:09:53.183Z,1022.50
2019-04-29T11:11:01.876Z,1022.46
2019-04-29T11:11:53.279Z,1022.45
2019-04-29T11:12:53.323Z,1022.46
2019-04-29T11:13:53.371Z,1022.43
2019-04-29T11:14:53.419Z,1022.47
2019-04-29T11:15:53.462Z,1022.41
2019-04-29T11:16:53.507Z,1022.43
2019-04-29T11:17:59.197Z,1022.41
2019-04-29T11:18:55.144Z,1022.42
2019-04-29T11:19:53.654Z,1022.39
2019-04-29T11:20:55.466Z,1022.37
2019-04-29T11:21:53.743Z,1022.41
2019-04-29T11:22:53.788Z,1022.38
2019-04-29T11:23:54.861Z,1022.40
2019-04-29T11:24:53.882Z,1022.39
2019-04-29T11:25:53.927Z,1022.39
2019-04-29T11:26:53.972Z,1022.37
2019-04-29T11:27:56.141Z,1022.35
2019-04-29T11:28:54.813Z,1022.32
2019-04-29T11:29:54.110Z,1022.32
2019-04-29T11:30:54.156Z,1022.36
2019-04-29T11:31:55.796Z,1022.39
2019-04-29T11:32:54.264Z,1022.32
2019-04-29T11:33:54.298Z,1022.34
2019-04-29T11:34:55.054Z,1022.31
2019-04-29T11:35:54.389Z,1022.31
2019-04-29T11:36:54.434Z,1022.33
2019-04-29T11:37:56.112Z,1022.31
2019-04-29T11:38:54.527Z,1022.32
2019-04-29T11:39:57.087Z,1022.19
2019-04-29T11:40:54.621Z,1022.26
2019-04-29T11:41:59.493Z,1022.28
2019-04-29T11:42:54.714Z,1022.30
2019-04-29T11:43:54.757Z,1022.28
2019-04-29T11:44:57.069Z,1022.24
2019-04-29T11:45:54.850Z,1022.24
2019-04-29T11:46:54.900Z,1022.19
2019-04-29T11:47:54.944Z,1022.22
2019-04-29T11:48:54.990Z,1022.25
2019-04-29T11:49:55.038Z,1022.31
2019-04-29T11:50:55.354Z,1022.28
2019-04-29T11:52:09.301Z,1022.30
2019-04-29T11:52:55.671Z,1022.28
2019-04-29T11:53:55.224Z,1022.28
2019-04-29T11:54:55.270Z,1022.24
2019-04-29T11:55:57.004Z,1022.27
2019-04-29T11:56:55.361Z,1022.30
2019-04-29T11:57:55.410Z,1022.32
2019-04-29T11:58:55.467Z,1022.31
2019-04-29T11:59:55.498Z,1022.27
2019-04-29T12:00:55.551Z,1022.32
2019-04-29T12:01:55.593Z,1022.28
2019-04-29T12:02:55.637Z,1022.30
2019-04-29T12:03:56.618Z,1022.30
2019-04-29T12:04:55.734Z,1022.29
2019-04-29T12:05:55.776Z,1022.29